Time;durP1;ratioP1;P1;durP2;ratioP2;P2;SDS_P1;SDS_P2;PMS_P1;PMS_P2;Temp;Humidity;BMP_temperature;BMP_pressure;BME280_temperature;BME280_humidity;BME280_pressure;Samples;Min_cycle;Max_cycle;Signal;HPM_P1;HPM_P2
2022/02/21 00:02:21;;;;;;;0.10;0.10;;;10.50;99.90;;;;;;5023667;28;20209;-83
2022/02/21 00:04:47;;;;;;;0.27;0.10;;;10.50;99.90;;;;;;5024278;28;20227;-84
2022/02/21 00:07:12;;;;;;;0.77;0.17;;;10.50;99.90;;;;;;5024926;28;20222;-85
2022/02/21 00:09:38;;;;;;;0.30;0.30;;;10.50;99.90;;;;;;5026116;28;20292;-85
2022/02/21 00:12:04;;;;;;;0.10;0.10;;;10.60;99.90;;;;;;5025042;28;20181;-83
2022/02/21 00:14:30;;;;;;;0.20;0.20;;;10.60;99.90;;;;;;5026741;28;20227;-85
2022/02/21 00:16:56;;;;;;;0.23;0.13;;;10.50;99.90;;;;;;5026176;28;20212;-84
2022/02/21 00:19:21;;;;;;;3.83;0.23;;;10.60;99.90;;;;;;5025514;28;21172;-85
2022/02/21 00:21:47;;;;;;;0.10;0.10;;;10.60;99.90;;;;;;5024951;28;20277;-85
2022/02/21 00:24:12;;;;;;;0.10;0.10;;;10.50;99.90;;;;;;5026977;28;20201;-85
2022/02/21 00:26:38;;;;;;;0.10;0.10;;;10.60;99.90;;;;;;5021579;28;20686;-85
2022/02/21 00:29:03;;;;;;;0.10;0.10;;;10.50;99.90;;;;;;5020666;28;20208;-84
2022/02/21 00:31:29;;;;;;;0.10;0.10;;;10.50;99.90;;;;;;5022254;28;20718;-85
2022/02/21 00:33:54;;;;;;;0.20;0.20;;;10.40;99.90;;;;;;5023329;28;20186;-83
2022/02/21 00:36:20;;;;;;;0.80;0.20;;;10.50;99.90;;;;;;5024716;28;20205;-85
2022/02/21 00:38:46;;;;;;;0.00;0.00;;;10.40;99.90;;;;;;5025228;28;20237;-85
2022/02/21 00:41:11;;;;;;;0.10;0.10;;;10.40;99.90;;;;;;5026311;28;20250;-85
2022/02/21 00:43:37;;;;;;;0.00;0.00;;;10.40;99.90;;;;;;5024646;28;20197;-85
2022/02/21 00:46:02;;;;;;;0.20;0.20;;;10.40;99.90;;;;;;5023347;28;20660;-85
2022/02/21 00:48:28;;;;;;;0.20;0.20;;;10.40;99.90;;;;;;5023630;28;20212;-86
2022/02/21 00:50:54;;;;;;;0.10;0.10;;;10.40;99.90;;;;;;5022469;28;20546;-84
2022/02/21 00:53:19;;;;;;;0.10;0.10;;;10.40;99.90;;;;;;5023251;28;20195;-85
2022/02/21 00:55:45;;;;;;;0.03;0.03;;;10.50;99.90;;;;;;5024328;28;20187;-85
2022/02/21 00:58:10;;;;;;;0.10;0.10;;;10.50;99.90;;;;;;5022230;28;20213;-85
2022/02/21 01:00:37;;;;;;;0.10;0.10;;;10.50;99.90;;;;;;5022890;28;20249;-86
2022/02/21 01:03:03;;;;;;;0.10;0.10;;;10.50;99.90;;;;;;5021937;28;20193;-85
2022/02/21 01:05:29;;;;;;;0.10;0.10;;;10.50;99.90;;;;;;5023076;28;20216;-85
2022/02/21 01:07:54;;;;;;;0.10;0.10;;;10.50;99.90;;;;;;5019336;28;20211;-85
2022/02/21 01:10:21;;;;;;;0.20;0.20;;;10.50;99.90;;;;;;5022942;28;20208;-85
2022/02/21 01:12:46;;;;;;;0.43;0.30;;;10.50;99.90;;;;;;5023905;28;20186;-85
2022/02/21 01:15:14;;;;;;;0.10;0.10;;;10.50;99.90;;;;;;5017979;28;20195;-84
2022/02/21 01:17:42;;;;;;;0.10;0.10;;;10.30;99.90;;;;;;5024768;28;20207;-84
2022/02/21 01:20:08;;;;;;;0.20;0.20;;;10.30;99.90;;;;;;5021301;28;20200;-85
2022/02/21 01:22:34;;;;;;;0.10;0.10;;;10.20;99.90;;;;;;5023322;28;20190;-85
2022/02/21 01:25:00;;;;;;;0.67;0.40;;;10.00;99.90;;;;;;5022149;28;20201;-85
2022/02/21 01:27:26;;;;;;;0.20;0.20;;;8.80;99.90;;;;;;5020325;28;20227;-84
2022/02/21 01:29:52;;;;;;;0.10;0.10;;;8.30;99.90;;;;;;5022250;28;20685;-84
2022/02/21 01:32:17;;;;;;;0.57;0.23;;;7.50;99.90;;;;;;5023607;28;20637;-84
2022/02/21 01:34:43;;;;;;;0.00;0.00;;;7.30;99.90;;;;;;5020245;28;20179;-84
2022/02/21 01:37:09;;;;;;;0.10;0.10;;;7.20;99.90;;;;;;5018144;28;20202;-85
2022/02/21 01:39:34;;;;;;;0.10;0.10;;;7.30;99.90;;;;;;5023864;28;20221;-85
2022/02/21 01:42:00;;;;;;;0.10;0.10;;;7.40;99.90;;;;;;5023059;28;20178;-83
2022/02/21 01:44:40;;;;;;;0.00;0.00;;;7.50;99.90;;;;;;5018097;28;20281;-85
2022/02/21 01:47:08;;;;;;;0.30;0.30;;;7.60;99.90;;;;;;5023826;28;20870;-84
2022/02/21 01:49:33;;;;;;;0.07;0.07;;;7.60;99.90;;;;;;5024978;28;20647;-85
2022/02/21 01:52:00;;;;;;;0.30;0.17;;;7.70;99.90;;;;;;5018468;28;20237;-85
2022/02/21 01:54:26;;;;;;;0.10;0.10;;;7.70;99.90;;;;;;5025178;28;20198;-84
2022/02/21 01:56:53;;;;;;;0.10;0.10;;;7.70;99.90;;;;;;5022153;28;20212;-84
2022/02/21 01:59:19;;;;;;;0.10;0.10;;;7.70;99.90;;;;;;5022404;28;20189;-85
2022/02/21 02:01:46;;;;;;;0.10;0.10;;;7.70;99.90;;;;;;5018295;28;20720;-85
2022/02/21 02:04:12;;;;;;;0.10;0.10;;;7.80;99.90;;;;;;5023361;28;20188;-86
2022/02/21 02:06:38;;;;;;;0.10;0.10;;;7.80;99.90;;;;;;5019871;28;20212;-84
2022/02/21 02:09:04;;;;;;;0.17;0.17;;;7.90;99.90;;;;;;5017795;28;20208;-85
2022/02/21 02:11:32;;;;;;;0.10;0.10;;;8.00;99.90;;;;;;5022448;28;20178;-85
2022/02/21 02:13:58;;;;;;;0.10;0.10;;;8.10;99.90;;;;;;5023182;28;20283;-84
2022/02/21 02:16:23;;;;;;;2.20;0.33;;;8.10;99.90;;;;;;5021246;28;20200;-85
2022/02/21 02:18:49;;;;;;;0.30;0.30;;;8.10;99.90;;;;;;5023404;28;20187;-84
2022/02/21 02:21:21;;;;;;;0.27;0.27;;;8.10;99.90;;;;;;5021721;28;20178;-84
2022/02/21 02:23:49;;;;;;;0.20;0.20;;;8.10;99.90;;;;;;5021333;28;20197;-84
2022/02/21 02:26:17;;;;;;;0.00;0.00;;;8.10;99.90;;;;;;5021386;28;20212;-84
2022/02/21 02:28:43;;;;;;;0.10;0.10;;;8.10;99.90;;;;;;5019452;28;20504;-84
2022/02/21 02:31:09;;;;;;;0.10;0.10;;;8.00;99.90;;;;;;5025175;28;20541;-84
2022/02/21 02:33:37;;;;;;;1.60;0.50;;;8.10;99.90;;;;;;5021952;28;20202;-83
2022/02/21 02:36:03;;;;;;;0.10;0.10;;;8.10;99.90;;;;;;5022562;28;20179;-84
2022/02/21 02:38:29;;;;;;;0.10;0.10;;;8.10;99.90;;;;;;5023570;28;20205;-85
2022/02/21 02:40:54;;;;;;;0.30;0.30;;;8.10;99.90;;;;;;5021541;28;20195;-85
2022/02/21 02:43:20;;;;;;;1.17;1.17;;;8.00;99.90;;;;;;5022155;28;20186;-85
2022/02/21 02:45:46;;;;;;;0.10;0.10;;;8.00;99.90;;;;;;5020164;28;20273;-85
2022/02/21 02:48:12;;;;;;;0.10;0.10;;;8.00;99.90;;;;;;5019561;28;20216;-85
2022/02/21 02:50:38;;;;;;;0.10;0.10;;;8.00;99.90;;;;;;5020551;28;20294;-85
2022/02/21 02:53:04;;;;;;;0.37;0.23;;;8.00;99.90;;;;;;5023053;28;20278;-84
2022/02/21 02:55:29;;;;;;;0.10;0.10;;;8.00;99.90;;;;;;5022901;28;20297;-86
2022/02/21 02:57:55;;;;;;;0.23;0.23;;;8.00;99.90;;;;;;5024492;28;20206;-85
2022/02/21 03:00:20;;;;;;;0.50;0.23;;;8.00;99.90;;;;;;5026641;28;20188;-85
2022/02/21 03:02:46;;;;;;;0.10;0.10;;;7.80;99.90;;;;;;5028128;28;20673;-85
2022/02/21 03:05:11;;;;;;;0.10;0.10;;;7.80;99.90;;;;;;5025992;28;20198;-84
2022/02/21 03:07:37;;;;;;;0.00;0.00;;;7.80;99.90;;;;;;5026210;28;20210;-85
2022/02/21 03:10:03;;;;;;;0.10;0.10;;;7.70;99.90;;;;;;5026818;28;20221;-85
2022/02/21 03:12:29;;;;;;;0.00;0.00;;;7.60;99.90;;;;;;5025655;28;20244;-85
2022/02/21 03:14:57;;;;;;;0.10;0.10;;;7.40;99.90;;;;;;5027728;28;20183;-85
2022/02/21 03:17:23;;;;;;;0.20;0.10;;;7.40;99.90;;;;;;5022242;28;20561;-85
2022/02/21 03:19:49;;;;;;;2.90;0.20;;;7.30;99.90;;;;;;5025888;28;20310;-85
2022/02/21 03:22:14;;;;;;;0.10;0.10;;;7.20;99.90;;;;;;5024399;28;20864;-84
2022/02/21 03:24:40;;;;;;;0.00;0.00;;;7.20;99.90;;;;;;5024689;28;20220;-85
2022/02/21 03:27:05;;;;;;;0.00;0.00;;;7.10;99.90;;;;;;5025689;28;20699;-84
2022/02/21 03:29:31;;;;;;;0.30;0.30;;;7.10;99.90;;;;;;5024080;28;20257;-85
2022/02/21 03:31:56;;;;;;;0.00;0.00;;;7.10;99.90;;;;;;5025323;28;20186;-84
2022/02/21 03:34:22;;;;;;;1.30;0.20;;;7.10;99.90;;;;;;5027590;28;20269;-85
2022/02/21 03:36:47;;;;;;;0.00;0.00;;;7.10;99.90;;;;;;5025931;28;20206;-85
2022/02/21 03:39:13;;;;;;;0.10;0.10;;;7.10;99.90;;;;;;5028082;28;20190;-84
2022/02/21 03:41:39;;;;;;;0.10;0.10;;;7.10;99.90;;;;;;5020551;28;20682;-85
2022/02/21 03:44:05;;;;;;;0.10;0.10;;;7.10;99.90;;;;;;5027374;28;20202;-85
2022/02/21 03:46:30;;;;;;;0.00;0.00;;;7.10;99.90;;;;;;5025996;28;20209;-84
2022/02/21 03:48:56;;;;;;;0.03;0.03;;;7.00;99.90;;;;;;5023876;28;20305;-85
2022/02/21 03:51:21;;;;;;;0.00;0.00;;;7.00;99.90;;;;;;5022771;28;20186;-85
2022/02/21 03:53:47;;;;;;;0.10;0.10;;;6.90;99.90;;;;;;5028112;28;20178;-85
2022/02/21 03:56:12;;;;;;;0.00;0.00;;;6.80;99.90;;;;;;5026424;28;20268;-85
2022/02/21 03:58:41;;;;;;;0.10;0.10;;;6.70;99.90;;;;;;5027897;28;20194;-85
2022/02/21 04:01:06;;;;;;;0.10;0.10;;;6.70;99.90;;;;;;5021180;28;20190;-86
2022/02/21 04:03:32;;;;;;;0.10;0.10;;;6.60;99.90;;;;;;5026058;28;20199;-84
2022/02/21 04:05:58;;;;;;;0.40;0.40;;;6.60;99.90;;;;;;5023515;28;20199;-85
2022/02/21 04:08:23;;;;;;;0.10;0.10;;;6.60;99.90;;;;;;5021021;28;20698;-85
2022/02/21 04:10:49;;;;;;;0.33;0.27;;;6.50;99.90;;;;;;5025401;28;20182;-85
2022/02/21 04:13:14;;;;;;;0.10;0.10;;;6.40;99.90;;;;;;5023874;28;20335;-85
2022/02/21 04:15:40;;;;;;;0.10;0.10;;;6.40;99.90;;;;;;5024008;28;20369;-85
2022/02/21 04:18:05;;;;;;;0.10;0.10;;;6.40;99.90;;;;;;5026898;28;20229;-85
2022/02/21 04:20:31;;;;;;;1.00;0.23;;;6.30;99.90;;;;;;5023141;28;20182;-84
2022/02/21 04:22:57;;;;;;;0.10;0.10;;;6.30;99.90;;;;;;5024717;28;20194;-85
2022/02/21 04:25:23;;;;;;;0.13;0.13;;;6.20;99.90;;;;;;5022649;28;20186;-86
2022/02/21 04:27:51;;;;;;;0.43;0.43;;;6.20;99.90;;;;;;5025340;28;20213;-85
2022/02/21 04:30:18;;;;;;;0.20;0.20;;;6.20;99.90;;;;;;5025179;28;20567;-85
2022/02/21 04:32:46;;;;;;;0.10;0.10;;;6.20;99.90;;;;;;5024626;28;20190;-85
2022/02/21 04:35:12;;;;;;;0.83;0.30;;;6.10;99.90;;;;;;5025230;28;20198;-84
2022/02/21 04:37:38;;;;;;;1.50;0.70;;;6.10;99.90;;;;;;5023827;28;20206;-85
2022/02/21 04:40:06;;;;;;;0.00;0.00;;;6.10;99.90;;;;;;5025288;28;20646;-85
2022/02/21 04:42:32;;;;;;;0.30;0.30;;;6.20;99.90;;;;;;5026128;28;20171;-85
2022/02/21 04:44:57;;;;;;;0.10;0.10;;;6.20;99.90;;;;;;5025499;28;20262;-84
2022/02/21 04:47:23;;;;;;;0.10;0.10;;;6.10;99.90;;;;;;5026920;28;20798;-85
2022/02/21 04:49:49;;;;;;;0.10;0.10;;;6.10;99.90;;;;;;5023900;28;20206;-84
2022/02/21 04:52:14;;;;;;;0.00;0.00;;;6.10;99.90;;;;;;5026069;28;20186;-85
2022/02/21 04:54:40;;;;;;;0.00;0.00;;;6.00;99.90;;;;;;5024155;28;20182;-85
2022/02/21 04:57:05;;;;;;;0.47;0.30;;;6.00;99.90;;;;;;5021969;28;20755;-85
2022/02/21 04:59:31;;;;;;;1.13;0.10;;;6.00;99.90;;;;;;5024798;28;20178;-83
2022/02/21 05:02:00;;;;;;;0.10;0.10;;;6.00;99.90;;;;;;5022358;28;20205;-85
2022/02/21 05:04:28;;;;;;;0.10;0.10;;;6.00;99.90;;;;;;5024681;28;20221;-85
2022/02/21 05:06:54;;;;;;;0.20;0.20;;;6.00;99.90;;;;;;5020110;28;20589;-85
2022/02/21 05:09:19;;;;;;;0.53;0.53;;;6.00;99.90;;;;;;5026035;28;20202;-85
2022/02/21 05:11:45;;;;;;;0.00;0.00;;;5.90;99.90;;;;;;5025781;28;20195;-85
2022/02/21 05:14:11;;;;;;;1.03;0.93;;;5.90;99.90;;;;;;5024952;28;20563;-84
2022/02/21 05:16:36;;;;;;;0.30;0.27;;;5.90;99.90;;;;;;5025512;28;20260;-84
2022/02/21 05:19:02;;;;;;;0.10;0.10;;;5.90;99.90;;;;;;5018722;28;20192;-85
2022/02/21 05:21:29;;;;;;;1.73;1.20;;;5.80;99.90;;;;;;5016352;28;20613;-84
2022/02/21 05:23:55;;;;;;;0.10;0.10;;;5.80;99.90;;;;;;5024903;28;20193;-85
2022/02/21 05:26:21;;;;;;;0.00;0.00;;;5.80;99.90;;;;;;5023635;28;20210;-85
2022/02/21 05:28:46;;;;;;;1.53;1.43;;;5.70;99.90;;;;;;5025027;28;20222;-85
2022/02/21 05:31:12;;;;;;;0.10;0.10;;;5.80;99.90;;;;;;5023632;28;20186;-85
2022/02/21 05:33:37;;;;;;;0.00;0.00;;;5.80;99.90;;;;;;5020552;28;20587;-82
2022/02/21 05:36:03;;;;;;;0.53;0.40;;;5.70;99.90;;;;;;5025072;28;20218;-84
2022/02/21 05:38:29;;;;;;;0.07;0.07;;;5.70;99.90;;;;;;5024475;28;20553;-84
2022/02/21 05:40:54;;;;;;;0.67;0.67;;;5.70;99.90;;;;;;5019154;28;20190;-84
2022/02/21 05:43:20;;;;;;;0.93;0.20;;;5.70;99.90;;;;;;5019900;28;20210;-83
2022/02/21 05:45:45;;;;;;;0.37;0.37;;;5.70;99.90;;;;;;5024264;28;20182;-84
2022/02/21 05:48:11;;;;;;;2.10;1.30;;;5.70;99.90;;;;;;5025818;28;20688;-84
2022/02/21 05:50:36;;;;;;;0.57;0.47;;;5.70;99.90;;;;;;5024061;28;20197;-84
2022/02/21 05:53:02;;;;;;;0.10;0.10;;;5.70;99.90;;;;;;5024852;28;20187;-83
2022/02/21 05:55:28;;;;;;;4.57;0.33;;;5.70;99.90;;;;;;5022222;28;20233;-83
2022/02/21 05:57:57;;;;;;;0.00;0.00;;;5.60;99.90;;;;;;5020153;28;20198;-84
2022/02/21 06:00:23;;;;;;;0.10;0.10;;;5.60;99.90;;;;;;5025124;28;20192;-84
2022/02/21 06:02:49;;;;;;;0.20;0.20;;;5.60;99.90;;;;;;5025916;28;20170;-83
2022/02/21 06:05:14;;;;;;;0.20;0.20;;;5.60;99.90;;;;;;5022279;28;20203;-84
2022/02/21 06:07:40;;;;;;;0.10;0.10;;;5.60;99.90;;;;;;5021795;28;20212;-84
2022/02/21 06:10:06;;;;;;;0.20;0.20;;;5.60;99.90;;;;;;5022410;28;20264;-84
2022/02/21 06:12:32;;;;;;;0.03;0.03;;;5.60;99.90;;;;;;5024091;28;20190;-82
2022/02/21 06:14:58;;;;;;;0.10;0.10;;;5.60;99.90;;;;;;5041260;28;20209;-83
2022/02/21 06:17:23;;;;;;;0.10;0.10;;;5.70;99.90;;;;;;5024320;28;20225;-83
2022/02/21 06:19:49;;;;;;;0.10;0.10;;;5.70;99.90;;;;;;5021671;28;20217;-83
2022/02/21 06:22:15;;;;;;;0.10;0.10;;;5.70;99.90;;;;;;5019156;28;20191;-83
2022/02/21 06:24:40;;;;;;;0.13;0.13;;;5.70;99.90;;;;;;5022535;28;20190;-82
2022/02/21 06:27:06;;;;;;;0.10;0.10;;;5.70;99.90;;;;;;5022098;28;20202;-82
2022/02/21 06:29:31;;;;;;;0.13;0.13;;;5.70;99.90;;;;;;5025703;28;20294;-82
2022/02/21 06:31:57;;;;;;;1.73;0.23;;;5.70;99.90;;;;;;5027836;28;20213;-82
2022/02/21 06:34:23;;;;;;;2.03;0.47;;;5.60;99.90;;;;;;5028478;28;20450;-83
2022/02/21 06:36:48;;;;;;;3.20;1.50;;;5.60;99.90;;;;;;5027116;28;20207;-83
2022/02/21 06:39:15;;;;;;;0.40;0.40;;;5.60;99.90;;;;;;5029386;28;20186;-83
2022/02/21 06:41:40;;;;;;;0.00;0.00;;;5.70;99.90;;;;;;5025455;28;20301;-83
2022/02/21 06:44:06;;;;;;;0.10;0.10;;;5.80;99.90;;;;;;5029887;28;20849;-83
2022/02/21 06:46:32;;;;;;;0.10;0.10;;;5.80;99.90;;;;;;5023925;28;20206;-82
2022/02/21 06:48:57;;;;;;;0.03;0.03;;;5.90;99.90;;;;;;5029581;28;20212;-82
2022/02/21 06:51:23;;;;;;;0.30;0.30;;;6.00;99.90;;;;;;5030149;28;20265;-82
2022/02/21 06:53:49;;;;;;;4.17;0.90;;;6.00;99.90;;;;;;5039908;28;20182;-85
2022/02/21 06:56:14;;;;;;;0.30;0.30;;;6.00;99.90;;;;;;5043672;28;20333;-84
2022/02/21 06:58:40;;;;;;;0.10;0.10;;;6.00;99.90;;;;;;5030034;28;20186;-84
2022/02/21 07:01:05;;;;;;;0.77;0.77;;;5.90;99.90;;;;;;5027359;28;20202;-84
2022/02/21 07:03:31;;;;;;;0.10;0.10;;;5.80;99.90;;;;;;5022257;28;20197;-85
2022/02/21 07:05:56;;;;;;;0.00;0.00;;;5.50;99.90;;;;;;5027449;28;20202;-85
2022/02/21 07:08:22;;;;;;;0.03;0.03;;;5.30;99.90;;;;;;5025065;28;20232;-85
2022/02/21 07:10:48;;;;;;;0.10;0.10;;;5.00;99.90;;;;;;5022600;28;20590;-84
2022/02/21 07:13:13;;;;;;;0.00;0.00;;;4.80;99.90;;;;;;5027122;28;20224;-84
2022/02/21 07:15:41;;;;;;;0.03;0.03;;;4.50;99.90;;;;;;5027810;28;20212;-84
2022/02/21 07:18:08;;;;;;;0.00;0.00;;;4.30;99.90;;;;;;5025028;28;20303;-84
2022/02/21 07:20:35;;;;;;;0.10;0.10;;;4.20;99.90;;;;;;5023134;28;20650;-84
2022/02/21 07:23:01;;;;;;;0.00;0.00;;;4.00;99.90;;;;;;5027107;28;20176;-84
2022/02/21 07:25:28;;;;;;;0.00;0.00;;;4.00;99.90;;;;;;5025569;28;20319;-84
2022/02/21 07:27:54;;;;;;;0.00;0.00;;;3.90;99.90;;;;;;5022652;28;20211;-85
2022/02/21 07:30:26;;;;;;;0.03;0.03;;;4.00;99.90;;;;;;5023062;28;20216;-82
2022/02/21 07:32:52;;;;;;;0.10;0.10;;;4.00;99.90;;;;;;5019679;28;20219;-81
2022/02/21 07:35:18;;;;;;;0.00;0.00;;;4.00;99.90;;;;;;5027734;28;20181;-82
2022/02/21 07:37:44;;;;;;;11.53;0.40;;;4.10;99.90;;;;;;5024607;28;20852;-82
2022/02/21 07:40:11;;;;;;;0.10;0.10;;;4.20;99.90;;;;;;5022036;28;20206;-82
2022/02/21 07:42:39;;;;;;;0.00;0.00;;;4.40;99.90;;;;;;5026386;28;20183;-82
2022/02/21 07:45:06;;;;;;;0.10;0.10;;;4.50;99.90;;;;;;5025635;28;20196;-81
2022/02/21 07:47:32;;;;;;;0.07;0.07;;;4.60;99.90;;;;;;5024561;28;20762;-81
2022/02/21 07:49:57;;;;;;;0.10;0.10;;;4.70;99.90;;;;;;5015971;28;20217;-82
2022/02/21 07:52:23;;;;;;;3.00;0.20;;;4.70;99.90;;;;;;5024181;28;20184;-82
2022/02/21 07:54:48;;;;;;;0.87;0.20;;;4.80;99.90;;;;;;5027318;28;20259;-82
2022/02/21 07:57:14;;;;;;;0.10;0.10;;;4.80;99.90;;;;;;5028077;28;20236;-81
2022/02/21 07:59:40;;;;;;;0.10;0.10;;;4.80;99.90;;;;;;5025588;28;20204;-82
2022/02/21 08:02:06;;;;;;;0.00;0.00;;;4.90;99.90;;;;;;5027852;28;20721;-82
2022/02/21 08:04:31;;;;;;;0.10;0.10;;;4.90;99.90;;;;;;5026656;28;20198;-82
2022/02/21 08:06:57;;;;;;;0.00;0.00;;;4.90;99.90;;;;;;5025841;28;20209;-81
2022/02/21 08:09:23;;;;;;;0.00;0.00;;;4.90;99.90;;;;;;5020088;28;20219;-81
2022/02/21 08:11:49;;;;;;;0.40;0.40;;;5.00;99.90;;;;;;5023369;28;20182;-82
2022/02/21 08:14:14;;;;;;;0.00;0.00;;;5.00;99.90;;;;;;5021552;28;20610;-82
2022/02/21 08:16:40;;;;;;;0.00;0.00;;;5.20;99.90;;;;;;5024798;28;20206;-82
2022/02/21 08:19:06;;;;;;;0.10;0.10;;;5.30;99.90;;;;;;5029631;28;20210;-82
2022/02/21 08:21:32;;;;;;;0.10;0.10;;;5.20;99.90;;;;;;5025713;28;20215;-82
2022/02/21 08:23:58;;;;;;;0.10;0.10;;;5.20;99.90;;;;;;5028086;28;20188;-82
2022/02/21 08:26:24;;;;;;;0.10;0.10;;;5.30;99.90;;;;;;5027312;28;20762;-82
2022/02/21 08:28:49;;;;;;;0.00;0.00;;;5.60;99.90;;;;;;5029059;28;20208;-82
2022/02/21 08:31:15;;;;;;;0.00;0.00;;;6.00;99.90;;;;;;5027240;28;20761;-83
2022/02/21 08:33:41;;;;;;;0.10;0.10;;;6.20;99.90;;;;;;5027480;28;20279;-84
2022/02/21 08:36:07;;;;;;;0.30;0.10;;;6.50;99.90;;;;;;5024297;28;20205;-82
2022/02/21 08:38:32;;;;;;;0.10;0.10;;;6.50;99.90;;;;;;5025634;28;20174;-82
2022/02/21 08:40:58;;;;;;;0.00;0.00;;;6.70;99.90;;;;;;5023145;28;20182;-82
2022/02/21 08:43:28;;;;;;;0.00;0.00;;;6.70;99.90;;;;;;5027388;28;20178;-82
2022/02/21 08:45:55;;;;;;;0.10;0.10;;;6.70;99.90;;;;;;5024128;28;20178;-82
2022/02/21 08:48:20;;;;;;;0.10;0.10;;;6.80;99.90;;;;;;5027685;28;20210;-81
2022/02/21 08:50:46;;;;;;;0.10;0.10;;;6.80;99.90;;;;;;5026716;28;20178;-82
2022/02/21 08:53:11;;;;;;;0.27;0.13;;;7.00;99.90;;;;;;5026484;28;20183;-82
2022/02/21 08:55:37;;;;;;;0.60;0.30;;;7.10;99.90;;;;;;5027735;28;20272;-82
2022/02/21 08:58:02;;;;;;;0.00;0.00;;;7.10;99.90;;;;;;5027574;28;20253;-82
2022/02/21 09:00:28;;;;;;;0.37;0.37;;;7.10;99.90;;;;;;5025666;28;20174;-82
2022/02/21 09:02:54;;;;;;;0.00;0.00;;;7.30;99.90;;;;;;5023158;28;20626;-83
2022/02/21 09:05:23;;;;;;;0.10;0.10;;;7.50;99.90;;;;;;5023014;28;20742;-82
2022/02/21 09:07:49;;;;;;;0.20;0.20;;;7.60;99.90;;;;;;5022999;28;20296;-84
2022/02/21 09:10:14;;;;;;;0.10;0.10;;;7.50;99.90;;;;;;5019304;28;20918;-84
2022/02/21 09:12:40;;;;;;;0.10;0.10;;;7.70;99.90;;;;;;5021359;28;20206;-82
2022/02/21 09:15:06;;;;;;;0.10;0.10;;;7.50;99.90;;;;;;5021267;28;20182;-82
2022/02/21 09:17:33;;;;;;;1.63;0.70;;;7.70;99.90;;;;;;5020543;28;20210;-82
2022/02/21 09:19:58;;;;;;;0.20;0.20;;;7.70;99.90;;;;;;5020970;28;20272;-82
2022/02/21 09:22:24;;;;;;;0.57;0.57;;;7.80;99.90;;;;;;5021431;28;20270;-83
2022/02/21 09:24:50;;;;;;;0.30;0.30;;;7.80;99.90;;;;;;5020612;28;20190;-82
2022/02/21 09:27:16;;;;;;;0.20;0.13;;;8.00;99.90;;;;;;5022865;28;20290;-82
2022/02/21 09:29:43;;;;;;;0.10;0.10;;;7.90;99.90;;;;;;5018641;28;20210;-82
2022/02/21 09:32:08;;;;;;;0.20;0.20;;;7.80;99.90;;;;;;5019668;28;20224;-82
2022/02/21 09:34:34;;;;;;;1.70;0.43;;;7.60;99.90;;;;;;5023493;28;20324;-82
2022/02/21 09:36:59;;;;;;;0.40;0.40;;;7.70;99.90;;;;;;5020224;28;20256;-84
2022/02/21 09:39:25;;;;;;;1.13;0.17;;;7.90;99.90;;;;;;5024789;28;20191;-83
2022/02/21 09:41:50;;;;;;;0.00;0.00;;;8.00;99.90;;;;;;5025193;28;20191;-85
2022/02/21 09:44:17;;;;;;;0.13;0.13;;;8.30;99.90;;;;;;5024271;28;20198;-84
2022/02/21 09:46:46;;;;;;;6.33;0.70;;;8.40;99.90;;;;;;5021549;28;20252;-85
2022/02/21 09:49:12;;;;;;;2.33;0.30;;;8.40;99.90;;;;;;5021333;28;20232;-85
2022/02/21 09:51:38;;;;;;;0.17;0.17;;;8.60;99.90;;;;;;5018519;28;20237;-85
2022/02/21 09:54:03;;;;;;;0.00;0.00;;;8.40;99.90;;;;;;5021334;28;20224;-85
2022/02/21 09:56:29;;;;;;;2.47;0.50;;;8.50;99.90;;;;;;5020144;28;20622;-85
2022/02/21 09:58:55;;;;;;;0.77;0.77;;;8.60;99.90;;;;;;5017262;28;20197;-82
2022/02/21 10:01:27;;;;;;;0.30;0.30;;;8.60;99.90;;;;;;5021458;28;20538;-82
2022/02/21 10:03:57;;;;;;;0.10;0.10;;;8.60;99.90;;;;;;5021235;28;20207;-83
2022/02/21 10:06:25;;;;;;;0.27;0.27;;;8.80;99.90;;;;;;5024652;28;20682;-82
2022/02/21 10:09:09;;;;;;;0.10;0.10;;;8.80;99.90;;;;;;5028222;28;20210;-83
2022/02/21 10:11:42;;;;;;;0.00;0.00;;;8.70;99.90;;;;;;5027357;28;20177;-82
2022/02/21 10:14:09;;;;;;;0.93;0.47;;;9.10;99.90;;;;;;5026845;28;20191;-82
2022/02/21 10:16:39;;;;;;;0.10;0.10;;;9.40;99.90;;;;;;5028346;28;20310;-82
2022/02/21 10:19:10;;;;;;;0.73;0.20;;;9.50;99.90;;;;;;5028273;28;20195;-82
2022/02/21 10:21:45;;;;;;;0.10;0.10;;;9.20;99.90;;;;;;5020977;28;20201;-83
2022/02/21 10:24:11;;;;;;;0.30;0.30;;;9.10;99.90;;;;;;5021407;28;20202;-82
2022/02/21 10:26:37;;;;;;;0.10;0.10;;;8.80;99.90;;;;;;5024509;28;20215;-82
2022/02/21 10:29:06;;;;;;;0.00;0.00;;;9.20;99.90;;;;;;5027453;28;20229;-83
2022/02/21 10:31:32;;;;;;;0.10;0.10;;;9.30;99.90;;;;;;5022402;28;20601;-82
2022/02/21 10:34:05;;;;;;;0.20;0.20;;;9.00;99.90;;;;;;5026800;28;20312;-82
2022/02/21 10:36:39;;;;;;;1.03;0.60;;;9.00;99.90;;;;;;5022786;28;20206;-81
2022/02/21 10:39:13;;;;;;;0.10;0.10;;;8.90;99.90;;;;;;5029877;28;20194;-81
2022/02/21 10:42:09;;;;;;;0.03;0.03;;;9.00;99.90;;;;;;5031690;28;20216;-81
2022/02/21 10:44:37;;;;;;;0.10;0.10;;;9.20;99.90;;;;;;5025556;28;20198;-82
2022/02/21 10:47:17;;;;;;;0.10;0.10;;;9.10;99.90;;;;;;5032173;28;20589;-82
2022/02/21 10:49:52;;;;;;;0.37;0.37;;;9.10;99.90;;;;;;5043814;28;20216;-83
2022/02/21 10:52:39;;;;;;;0.00;0.00;;;9.10;99.90;;;;;;5030714;28;20295;-84
2022/02/21 10:55:09;;;;;;;0.07;0.07;;;8.90;99.90;;;;;;5020141;28;20176;-85
2022/02/21 10:57:43;;;;;;;0.20;0.10;;;8.90;99.90;;;;;;5027422;28;20206;-84
2022/02/21 11:00:10;;;;;;;0.20;0.20;;;8.90;99.90;;;;;;5023785;28;20980;-85
2022/02/21 11:02:39;;;;;;;0.10;0.10;;;8.70;99.90;;;;;;5025521;28;20183;-84
2022/02/21 11:05:08;;;;;;;0.83;0.83;;;8.70;99.90;;;;;;5025430;28;20202;-81
2022/02/21 11:07:34;;;;;;;0.10;0.10;;;8.80;99.90;;;;;;5027572;28;20219;-81
2022/02/21 11:10:01;;;;;;;0.10;0.10;;;8.80;99.90;;;;;;5028366;28;20687;-82
2022/02/21 11:12:32;;;;;;;0.20;0.20;;;8.80;99.90;;;;;;5028110;28;20207;-83
2022/02/21 11:15:00;;;;;;;0.10;0.10;;;8.90;99.90;;;;;;5027240;28;20188;-82
2022/02/21 11:17:27;;;;;;;0.23;0.23;;;8.70;99.90;;;;;;5028874;28;20208;-82
2022/02/21 11:19:52;;;;;;;0.33;0.33;;;8.70;99.90;;;;;;5027122;28;20217;-83
2022/02/21 11:22:18;;;;;;;0.10;0.10;;;8.70;99.90;;;;;;5022014;28;20227;-83
2022/02/21 11:24:50;;;;;;;0.10;0.10;;;8.70;99.90;;;;;;5028757;28;20187;-82
2022/02/21 11:27:43;;;;;;;0.10;0.10;;;8.90;99.90;;;;;;5022753;28;20220;-83
2022/02/21 11:30:10;;;;;;;0.10;0.10;;;9.10;99.90;;;;;;5026685;28;20226;-82
2022/02/21 11:32:40;;;;;;;0.10;0.10;;;9.00;99.90;;;;;;5024226;28;20183;-83
2022/02/21 11:35:11;;;;;;;0.03;0.03;;;8.90;99.90;;;;;;5025977;28;20897;-82
2022/02/21 11:37:38;;;;;;;0.00;0.00;;;8.70;99.90;;;;;;5026162;28;20326;-83
2022/02/21 11:40:05;;;;;;;0.10;0.10;;;8.70;99.90;;;;;;5023297;28;21375;-82
2022/02/21 11:42:33;;;;;;;0.10;0.10;;;8.80;99.90;;;;;;5027160;28;20269;-82
2022/02/21 11:45:00;;;;;;;0.30;0.30;;;9.00;99.90;;;;;;5026675;28;20191;-82
2022/02/21 11:47:33;;;;;;;0.47;0.47;;;8.80;99.90;;;;;;5028004;28;20217;-83
2022/02/21 11:50:00;;;;;;;0.10;0.10;;;8.80;99.90;;;;;;5029516;28;20216;-82
2022/02/21 11:52:32;;;;;;;1.20;1.20;;;9.20;99.90;;;;;;5028715;28;20183;-83
2022/02/21 11:54:58;;;;;;;0.10;0.10;;;9.40;99.90;;;;;;5025562;28;20237;-83
2022/02/21 11:57:42;;;;;;;0.10;0.10;;;9.20;99.90;;;;;;5026429;28;20212;-82
2022/02/21 12:00:39;;;;;;;0.10;0.10;;;9.30;99.90;;;;;;5025899;28;20305;-83
2022/02/21 12:03:15;;;;;;;0.10;0.10;;;9.40;99.90;;;;;;5022828;28;20192;-84
2022/02/21 12:05:41;;;;;;;0.10;0.10;;;9.20;99.90;;;;;;5027072;28;20299;-84
2022/02/21 12:08:31;;;;;;;0.10;0.10;;;9.20;99.90;;;;;;5025520;28;20707;-83
2022/02/21 12:11:14;;;;;;;0.00;0.00;;;9.10;99.90;;;;;;5025496;28;20240;-83
2022/02/21 12:13:46;;;;;;;0.40;0.40;;;9.00;99.90;;;;;;5023316;28;20268;-83
2022/02/21 12:16:14;;;;;;;0.10;0.10;;;8.80;99.90;;;;;;5022259;28;20671;-84
2022/02/21 12:18:45;;;;;;;0.10;0.10;;;8.70;99.90;;;;;;5021199;28;20245;-82
2022/02/21 12:21:11;;;;;;;0.10;0.10;;;8.70;99.90;;;;;;5026693;28;20185;-83
2022/02/21 12:24:00;;;;;;;3.20;0.20;;;8.60;99.90;;;;;;5023458;28;20198;-83
2022/02/21 12:26:27;;;;;;;0.10;0.10;;;8.60;99.90;;;;;;5026477;28;20208;-83
2022/02/21 12:29:09;;;;;;;0.30;0.30;;;8.80;99.90;;;;;;5026592;28;20614;-82
2022/02/21 12:31:36;;;;;;;0.10;0.10;;;8.80;99.90;;;;;;5025757;28;20197;-82
2022/02/21 12:34:01;;;;;;;0.10;0.10;;;8.70;99.90;;;;;;5017241;28;20195;-83
2022/02/21 12:36:57;;;;;;;0.40;0.40;;;8.70;99.90;;;;;;5022720;28;20695;-82
2022/02/21 12:39:26;;;;;;;0.10;0.10;;;8.60;99.90;;;;;;5022406;28;20266;-82
2022/02/21 12:41:52;;;;;;;0.10;0.10;;;8.60;99.90;;;;;;5022694;28;20189;-82
2022/02/21 12:44:19;;;;;;;0.07;0.07;;;8.70;99.90;;;;;;5025864;28;20195;-82
2022/02/21 12:46:50;;;;;;;0.10;0.10;;;8.70;99.90;;;;;;5029698;28;20249;-82
2022/02/21 12:49:29;;;;;;;0.10;0.10;;;8.80;99.90;;;;;;5023605;28;20220;-82
2022/02/21 12:51:57;;;;;;;0.10;0.10;;;8.70;99.90;;;;;;5024152;28;20665;-82
2022/02/21 12:54:23;;;;;;;0.10;0.10;;;8.70;99.90;;;;;;5021441;28;20188;-82
2022/02/21 12:56:54;;;;;;;0.10;0.10;;;8.80;99.90;;;;;;5021955;28;20230;-83